Time;durP1;ratioP1;P1;durP2;ratioP2;P2;SDS_P1;SDS_P2;PMS_P1;PMS_P2;Temp;Humidity;BMP_temperature;BMP_pressure;BME280_temperature;BME280_humidity;BME280_pressure;Samples;Min_cycle;Max_cycle;Signal;HPM_P1;HPM_P2
2022/02/04 00:09:05;;;;;;;6.28;4.88;;;10.50;99.90;;;;;;5012246;28;20202;-77
2022/02/04 00:22:46;;;;;;;4.90;4.40;;;10.50;99.90;;;;;;5027454;28;20604;-77
2022/02/04 00:25:24;;;;;;;4.72;3.92;;;10.50;99.90;;;;;;5026270;28;20232;-76
2022/02/04 00:27:51;;;;;;;5.65;5.05;;;10.50;99.90;;;;;;5026039;28;20189;-77
2022/02/04 00:30:24;;;;;;;5.50;5.00;;;10.50;99.90;;;;;;5024219;28;20197;-77
2022/02/04 00:32:51;;;;;;;4.75;4.35;;;10.50;99.90;;;;;;5025735;28;20213;-77
2022/02/04 00:35:32;;;;;;;5.22;4.72;;;10.50;99.90;;;;;;5028506;28;20189;-77
2022/02/04 00:38:10;;;;;;;5.82;5.32;;;10.50;99.90;;;;;;5024959;28;20209;-77
2022/02/04 00:40:40;;;;;;;4.60;4.05;;;10.50;99.90;;;;;;5020953;28;20259;-77
2022/02/04 00:43:10;;;;;;;5.90;4.90;;;10.50;99.90;;;;;;5023581;28;20668;-77
2022/02/04 00:45:58;;;;;;;5.22;4.32;;;10.50;99.90;;;;;;5020406;28;20174;-77
2022/02/04 01:26:10;;;;;;;5.53;4.45;;;10.60;99.90;;;;;;5022223;28;20186;-77
2022/02/04 01:28:37;;;;;;;4.80;4.30;;;10.60;99.90;;;;;;5021382;28;20180;-77
2022/02/04 01:31:04;;;;;;;4.05;3.65;;;10.60;99.90;;;;;;5022553;28;20231;-77
2022/02/04 01:33:30;;;;;;;5.75;4.10;;;10.60;99.90;;;;;;5019651;28;20209;-77
2022/02/04 01:35:56;;;;;;;5.07;4.55;;;10.60;99.90;;;;;;5020512;28;20194;-77
2022/02/04 01:38:23;;;;;;;3.97;3.45;;;10.60;99.90;;;;;;5021639;28;20182;-77
2022/02/04 01:40:49;;;;;;;5.68;3.75;;;10.60;99.90;;;;;;5018850;28;20228;-77
2022/02/04 01:43:21;;;;;;;5.00;3.07;;;10.60;99.90;;;;;;5022980;28;20174;-77
2022/02/04 01:45:56;;;;;;;3.97;3.45;;;10.60;99.90;;;;;;5023289;28;20627;-77
2022/02/04 01:48:22;;;;;;;4.03;3.60;;;10.60;99.90;;;;;;5020818;28;20178;-77
2022/02/04 01:50:49;;;;;;;3.50;3.20;;;10.60;99.90;;;;;;5022035;28;20201;-77
2022/02/04 01:53:19;;;;;;;4.65;3.08;;;10.60;99.90;;;;;;5019650;28;20249;-77
2022/02/04 01:55:46;;;;;;;3.65;2.90;;;10.60;99.90;;;;;;5021763;28;20210;-77
2022/02/04 01:58:13;;;;;;;3.80;3.40;;;10.70;99.90;;;;;;5021701;28;20211;-77
2022/02/04 02:00:39;;;;;;;4.32;2.85;;;10.70;99.90;;;;;;5022681;28;20304;-78
2022/02/04 02:03:07;;;;;;;3.20;2.85;;;10.70;99.90;;;;;;5024406;28;20185;-77
2022/02/04 02:05:33;;;;;;;4.07;2.30;;;10.70;99.90;;;;;;5022045;28;20200;-77
2022/02/04 02:08:10;;;;;;;2.47;2.28;;;10.70;99.90;;;;;;5021207;28;20583;-78
2022/02/04 02:10:36;;;;;;;2.20;1.98;;;10.60;99.90;;;;;;5023159;28;20232;-78
2022/02/04 02:59:18;;;;;;;3.50;2.90;;;10.70;99.90;;;;;;5022447;28;20178;-77
2022/02/04 03:01:33;;;;;;;3.05;2.47;;;10.70;99.90;;;;;;5028739;28;20240;-76
2022/02/04 03:04:04;;;;;;;3.23;2.60;;;10.70;99.90;;;;;;5025404;28;20215;-77
2022/02/04 03:06:30;;;;;;;4.10;3.10;;;10.70;99.90;;;;;;5024333;28;20592;-77
2022/02/04 03:08:56;;;;;;;3.10;2.70;;;10.70;99.90;;;;;;5032063;28;20256;-77
2022/02/04 03:11:21;;;;;;;3.70;3.00;;;10.70;99.90;;;;;;5026762;28;20191;-77
2022/02/04 03:13:47;;;;;;;4.97;3.03;;;10.70;99.90;;;;;;5027608;28;20254;-77
2022/02/04 03:16:17;;;;;;;4.40;2.43;;;10.70;99.90;;;;;;5025613;28;20174;-77
2022/02/04 03:18:46;;;;;;;4.55;4.13;;;10.70;99.90;;;;;;5024385;28;20581;-77
2022/02/04 03:21:17;;;;;;;3.25;2.88;;;10.70;99.90;;;;;;5027937;28;20193;-77
2022/02/04 03:23:50;;;;;;;3.05;2.60;;;10.70;99.90;;;;;;5021678;28;20179;-77
2022/02/04 03:26:33;;;;;;;2.70;2.20;;;10.70;99.90;;;;;;5024428;28;20182;-77
2022/02/04 03:28:59;;;;;;;7.25;3.60;;;10.80;99.90;;;;;;5025775;28;20193;-76
2022/02/04 03:31:28;;;;;;;2.63;2.43;;;10.80;99.90;;;;;;5025330;28;20205;-77
2022/02/04 03:33:54;;;;;;;2.60;2.40;;;10.80;99.90;;;;;;5037716;28;20636;-77
2022/02/04 03:36:20;;;;;;;3.60;2.30;;;10.80;99.90;;;;;;5025719;28;20537;-77
2022/02/04 03:38:46;;;;;;;3.10;2.60;;;10.80;99.90;;;;;;5021024;28;20646;-77
2022/02/04 03:41:11;;;;;;;3.20;2.90;;;10.80;99.90;;;;;;5023310;28;21077;-77
2022/02/04 03:43:37;;;;;;;3.53;2.47;;;10.80;99.90;;;;;;5026482;28;20225;-75
2022/02/04 03:46:05;;;;;;;5.47;2.40;;;10.80;99.90;;;;;;5024277;28;20577;-74
2022/02/04 03:48:32;;;;;;;4.10;2.50;;;10.80;99.90;;;;;;5025345;28;20534;-74
2022/02/04 03:50:57;;;;;;;3.95;3.40;;;10.80;99.90;;;;;;5021599;28;20257;-74
2022/02/04 03:53:23;;;;;;;3.43;3.13;;;10.80;99.90;;;;;;5025108;28;20197;-74
2022/02/04 03:55:49;;;;;;;5.83;3.47;;;10.80;99.90;;;;;;5030125;28;20945;-74
2022/02/04 03:58:14;;;;;;;3.50;3.20;;;10.80;99.90;;;;;;5027254;28;20177;-74
2022/02/04 04:00:40;;;;;;;4.70;2.93;;;10.80;99.90;;;;;;5021411;28;20230;-74
2022/02/04 04:03:09;;;;;;;3.60;2.93;;;10.80;99.90;;;;;;5025074;28;20182;-74
2022/02/04 04:05:44;;;;;;;5.70;3.35;;;10.80;99.90;;;;;;5024116;28;20181;-74
2022/02/04 04:08:10;;;;;;;4.18;3.13;;;10.80;99.90;;;;;;5023376;28;20178;-74
2022/02/04 04:10:41;;;;;;;4.20;3.80;;;10.80;99.90;;;;;;5022972;28;20206;-74
2022/02/04 04:13:07;;;;;;;3.80;3.35;;;10.80;99.90;;;;;;5020009;28;20204;-74
2022/02/04 04:15:33;;;;;;;2.47;2.22;;;10.80;99.90;;;;;;5023631;28;20635;-74
2022/02/04 04:17:59;;;;;;;4.10;3.00;;;10.80;99.90;;;;;;5038025;28;20184;-74
2022/02/04 04:20:27;;;;;;;3.45;2.42;;;10.80;99.90;;;;;;5023027;28;20182;-74
2022/02/04 04:22:54;;;;;;;3.22;2.10;;;10.80;99.90;;;;;;5022472;28;20193;-75
2022/02/04 04:25:20;;;;;;;3.72;2.40;;;10.80;99.90;;;;;;5022682;28;20177;-74
2022/02/04 04:27:47;;;;;;;2.73;2.43;;;10.80;99.90;;;;;;5022228;28;20273;-75
2022/02/04 04:30:15;;;;;;;2.55;1.50;;;10.80;99.90;;;;;;5023186;28;20596;-74
2022/02/04 04:32:43;;;;;;;2.80;1.70;;;10.80;99.90;;;;;;5021524;28;20206;-74
2022/02/04 04:35:11;;;;;;;3.47;2.30;;;10.80;99.90;;;;;;5022823;28;20189;-74
2022/02/04 04:37:46;;;;;;;2.38;1.73;;;10.80;99.90;;;;;;5022963;28;20182;-74
2022/02/04 04:40:34;;;;;;;2.33;1.38;;;10.70;99.90;;;;;;5024949;28;20206;-74
2022/02/04 04:43:20;;;;;;;2.40;1.58;;;10.70;99.90;;;;;;5030909;28;20173;-75
2022/02/04 05:29:11;;;;;;;3.87;1.30;;;10.80;99.90;;;;;;5020133;28;20182;-73
2022/02/04 05:31:37;;;;;;;1.98;1.60;;;10.80;99.90;;;;;;5015437;28;20220;-72
2022/02/04 05:34:03;;;;;;;1.93;1.73;;;10.80;99.90;;;;;;5023985;28;20526;-73
2022/02/04 05:36:30;;;;;;;2.88;1.63;;;10.80;99.90;;;;;;5020462;28;20577;-72
2022/02/04 05:38:56;;;;;;;3.00;1.80;;;10.80;99.90;;;;;;5019300;28;20177;-72
2022/02/04 05:41:29;;;;;;;2.00;1.57;;;10.90;99.90;;;;;;5034714;28;20247;-73
2022/02/04 05:43:58;;;;;;;3.50;2.22;;;10.90;99.90;;;;;;5024457;28;20185;-74
2022/02/04 05:46:31;;;;;;;2.45;1.73;;;10.90;99.90;;;;;;5028120;28;20269;-73
2022/02/04 05:48:58;;;;;;;2.13;1.55;;;10.80;99.90;;;;;;5025229;28;20216;-73
2022/02/04 05:51:43;;;;;;;2.20;1.70;;;10.90;99.90;;;;;;5021075;28;20339;-73
2022/02/04 05:56:49;;;;;;;2.13;1.27;;;10.80;99.90;;;;;;5026463;28;20203;-73
2022/02/04 06:14:46;;;;;;;1.73;0.87;;;10.90;99.90;;;;;;5027860;28;20177;-73
2022/02/04 06:22:40;;;;;;;1.45;0.88;;;10.90;99.90;;;;;;5026660;28;20637;-73
2022/02/04 06:25:11;;;;;;;1.20;0.70;;;10.90;99.90;;;;;;5019568;28;20181;-74
2022/02/04 06:27:38;;;;;;;1.45;0.90;;;10.90;99.90;;;;;;5002503;28;20229;-73
2022/02/04 06:30:05;;;;;;;1.20;0.75;;;10.90;99.90;;;;;;5001484;28;20276;-73
2022/02/04 06:32:32;;;;;;;3.80;0.80;;;10.90;99.90;;;;;;5024154;28;20267;-73
2022/02/04 06:34:59;;;;;;;1.50;1.00;;;10.90;99.90;;;;;;5020069;28;20175;-73
2022/02/04 06:37:25;;;;;;;1.30;0.80;;;10.90;99.90;;;;;;5022433;28;20672;-72
2022/02/04 06:39:51;;;;;;;1.38;0.90;;;10.80;99.90;;;;;;4998180;28;20575;-73
2022/02/04 06:42:22;;;;;;;2.33;0.90;;;10.80;99.90;;;;;;5019116;28;20208;-76
2022/02/04 06:44:49;;;;;;;1.92;1.33;;;10.80;99.90;;;;;;5025266;28;20588;-74
2022/02/04 06:47:15;;;;;;;1.60;0.95;;;10.80;99.90;;;;;;5029039;28;20277;-73
2022/02/04 06:49:42;;;;;;;1.50;1.00;;;10.80;99.90;;;;;;5027095;28;20216;-74
2022/02/04 06:52:08;;;;;;;1.50;0.90;;;10.70;99.90;;;;;;5023258;28;20224;-73
2022/02/04 06:54:35;;;;;;;1.83;1.05;;;10.70;99.90;;;;;;5028776;28;20178;-74
2022/02/04 06:57:01;;;;;;;1.40;0.90;;;10.70;99.90;;;;;;5022861;28;20281;-73
2022/02/04 06:59:26;;;;;;;1.60;1.20;;;10.70;99.90;;;;;;5020512;28;20193;-74
2022/02/04 07:01:52;;;;;;;1.83;1.27;;;10.70;99.90;;;;;;5028694;28;20194;-74
2022/02/04 07:04:18;;;;;;;1.40;0.90;;;10.70;99.90;;;;;;5033969;28;20649;-73
2022/02/04 07:06:53;;;;;;;1.92;1.00;;;10.70;99.90;;;;;;5014554;28;20715;-73
2022/02/04 07:17:10;;;;;;;1.50;0.90;;;10.70;99.90;;;;;;5028978;28;20177;-73
2022/02/04 07:19:46;;;;;;;1.60;0.95;;;10.70;99.90;;;;;;5030270;28;20264;-72
2022/02/04 07:22:16;;;;;;;1.50;0.88;;;10.70;99.90;;;;;;5052194;28;20193;-73
2022/02/04 07:24:42;;;;;;;1.83;1.00;;;10.70;99.90;;;;;;5027833;28;20224;-73
2022/02/04 07:27:08;;;;;;;1.63;1.10;;;10.70;99.90;;;;;;5028703;28;20265;-73
2022/02/04 07:29:35;;;;;;;2.10;1.10;;;10.70;99.90;;;;;;5031894;28;20273;-74
2022/02/04 07:32:06;;;;;;;2.53;0.98;;;10.70;99.90;;;;;;5030536;28;20704;-73
2022/02/04 07:42:46;;;;;;;1.70;1.17;;;10.80;99.90;;;;;;5028400;28;20178;-75
2022/02/04 07:45:12;;;;;;;2.30;1.58;;;10.80;99.90;;;;;;5029801;28;20208;-74
2022/02/04 07:47:38;;;;;;;2.40;1.35;;;10.80;99.90;;;;;;5029547;28;20173;-74
2022/02/04 07:50:06;;;;;;;2.60;1.53;;;10.80;99.90;;;;;;5022404;28;20212;-74
2022/02/04 07:52:32;;;;;;;3.05;2.53;;;10.80;99.90;;;;;;5026465;28;20205;-75
2022/02/04 07:54:58;;;;;;;2.20;1.60;;;10.80;99.90;;;;;;5012795;28;20174;-74
2022/02/04 07:57:24;;;;;;;3.20;2.00;;;10.80;99.90;;;;;;5030798;28;20660;-73
2022/02/04 07:59:50;;;;;;;2.63;2.30;;;10.80;99.90;;;;;;5006120;28;20166;-75
2022/02/04 08:02:15;;;;;;;2.00;1.50;;;10.80;99.90;;;;;;5028660;28;20236;-74
2022/02/04 08:04:44;;;;;;;2.13;1.30;;;10.80;99.90;;;;;;5014492;28;20548;-74
2022/02/04 08:07:14;;;;;;;1.95;1.50;;;10.80;99.90;;;;;;5023875;28;20182;-75
2022/02/04 08:12:31;;;;;;;2.15;1.73;;;10.80;99.90;;;;;;5019617;28;20564;-74
2022/02/04 08:15:04;;;;;;;2.25;1.17;;;10.80;99.90;;;;;;5024082;28;20538;-75
2022/02/04 08:24:06;;;;;;;3.35;1.50;;;10.90;99.90;;;;;;5019854;28;20185;-75
2022/02/04 08:29:08;;;;;;;2.17;1.33;;;11.00;99.90;;;;;;5021085;28;20511;-75
2022/02/04 08:54:48;;;;;;;1.60;1.23;;;11.30;99.90;;;;;;5026023;28;20637;-80
2022/02/04 09:02:52;;;;;;;2.10;0.90;;;11.40;99.90;;;;;;5030174;28;20188;-79
2022/02/04 09:05:18;;;;;;;1.73;1.20;;;11.50;99.90;;;;;;5022211;28;20182;-79
2022/02/04 09:08:07;;;;;;;1.87;0.97;;;11.60;99.90;;;;;;5031828;28;20560;-79
2022/02/04 09:10:30;;;;;;;1.45;1.00;;;11.60;99.90;;;;;;5021232;28;20232;-78
2022/02/04 09:20:40;;;;;;;2.13;1.13;;;12.10;99.90;;;;;;5032329;28;20201;-79
2022/02/04 09:23:07;;;;;;;1.40;1.00;;;12.20;99.90;;;;;;5023517;28;20252;-77
2022/02/04 09:25:33;;;;;;;1.85;1.02;;;12.30;99.90;;;;;;5020468;28;20641;-78
2022/02/04 09:27:58;;;;;;;1.50;1.03;;;12.40;99.90;;;;;;5023691;28;20240;-78
2022/02/04 09:30:25;;;;;;;2.10;1.20;;;12.40;99.90;;;;;;5021893;28;20249;-78
2022/02/04 09:32:51;;;;;;;1.85;1.17;;;12.50;99.90;;;;;;5023550;28;20217;-78
2022/02/04 09:35:23;;;;;;;1.92;1.10;;;12.60;99.90;;;;;;5027681;28;20165;-78
2022/02/04 09:37:53;;;;;;;2.00;1.20;;;12.60;99.90;;;;;;5021780;28;20714;-77
2022/02/04 09:40:20;;;;;;;2.47;1.10;;;12.60;99.90;;;;;;5022956;28;20595;-77
2022/02/04 09:42:47;;;;;;;1.80;1.10;;;12.70;99.90;;;;;;5025326;28;20589;-77
2022/02/04 09:45:15;;;;;;;1.53;1.03;;;12.80;99.90;;;;;;5016343;28;20599;-76
2022/02/04 09:47:47;;;;;;;2.03;1.07;;;12.90;99.90;;;;;;5019516;28;21003;-77
2022/02/04 09:50:17;;;;;;;1.67;0.90;;;13.00;99.90;;;;;;5021177;28;20615;-77
2022/02/04 10:18:12;;;;;;;3.30;0.93;;;13.70;99.90;;;;;;5025572;28;21131;-74
2022/02/04 10:20:40;;;;;;;1.80;0.80;;;13.70;99.90;;;;;;5020149;28;20631;-74
2022/02/04 10:23:05;;;;;;;1.50;0.70;;;13.70;99.90;;;;;;5029565;28;20626;-74
2022/02/04 10:25:37;;;;;;;3.50;1.00;;;13.60;99.90;;;;;;5024048;28;21228;-74
2022/02/04 10:28:18;;;;;;;1.80;0.80;;;13.60;99.90;;;;;;5026156;28;20178;-75
2022/02/04 10:30:44;;;;;;;1.40;0.60;;;13.60;99.90;;;;;;5016728;28;20288;-74
2022/02/04 10:33:15;;;;;;;2.00;1.00;;;13.60;99.90;;;;;;5022486;28;20634;-73
2022/02/04 10:35:41;;;;;;;1.50;0.80;;;13.60;99.90;;;;;;5018499;28;20576;-74
2022/02/04 10:38:18;;;;;;;1.73;0.90;;;13.60;99.90;;;;;;5014370;28;20679;-74
2022/02/04 10:40:53;;;;;;;1.60;0.80;;;13.60;99.90;;;;;;5038046;28;20620;-74
2022/02/04 10:43:37;;;;;;;1.60;0.70;;;13.50;99.90;;;;;;5028105;28;21127;-73
2022/02/04 10:49:02;;;;;;;1.50;0.80;;;13.50;99.90;;;;;;5027191;28;20625;-75
2022/02/04 10:51:47;;;;;;;1.40;0.60;;;13.50;99.90;;;;;;5023458;28;20604;-76
2022/02/04 11:02:55;;;;;;;1.10;0.60;;;13.30;99.90;;;;;;5026591;28;20604;-75
2022/02/04 11:05:24;;;;;;;1.10;0.60;;;13.30;99.90;;;;;;5026865;28;20628;-75
2022/02/04 11:35:02;;;;;;;1.20;0.60;;;13.30;99.90;;;;;;5021592;28;20952;-75
2022/02/04 11:55:10;;;;;;;1.77;0.60;;;12.90;99.90;;;;;;5003905;28;20270;-72
2022/02/04 11:57:56;;;;;;;1.77;0.50;;;12.80;99.90;;;;;;5029348;28;20576;-72
2022/02/04 12:00:32;;;;;;;1.40;0.50;;;12.80;99.90;;;;;;5019412;28;20586;-72
2022/02/04 12:02:59;;;;;;;1.85;0.50;;;12.80;99.90;;;;;;5033805;28;20594;-72
2022/02/04 12:05:25;;;;;;;1.20;0.80;;;12.80;99.90;;;;;;5029516;28;20228;-72
2022/02/04 12:07:57;;;;;;;1.08;0.55;;;12.80;99.90;;;;;;5019475;28;20956;-72
2022/02/04 12:10:29;;;;;;;1.40;0.50;;;12.80;99.90;;;;;;5029690;28;20518;-73
2022/02/04 12:13:07;;;;;;;1.00;0.50;;;12.80;99.90;;;;;;5034286;28;20619;-73
2022/02/04 12:15:36;;;;;;;1.00;0.50;;;12.80;99.90;;;;;;5041440;28;20186;-73
2022/02/04 12:18:14;;;;;;;1.55;0.60;;;12.90;99.90;;;;;;5015870;28;20584;-73
2022/02/04 12:20:46;;;;;;;1.67;0.50;;;12.90;99.90;;;;;;5032181;28;20305;-73
2022/02/04 12:23:27;;;;;;;1.30;0.50;;;12.90;99.90;;;;;;5033599;28;20177;-72
2022/02/04 12:26:31;;;;;;;1.20;0.60;;;12.90;99.90;;;;;;5018208;28;20650;-73
2022/02/04 12:29:02;;;;;;;1.13;0.50;;;12.90;99.90;;;;;;4996758;28;20194;-73
2022/02/04 12:31:31;;;;;;;1.10;0.40;;;12.90;99.90;;;;;;5032737;28;20697;-73
2022/02/04 12:34:11;;;;;;;1.30;0.55;;;12.80;99.90;;;;;;5024715;28;20636;-73
2022/02/04 12:36:42;;;;;;;1.25;0.60;;;12.70;99.90;;;;;;5025925;28;20190;-73
2022/02/04 12:39:37;;;;;;;1.73;0.57;;;12.70;99.90;;;;;;5033566;23;20214;-83
2022/02/04 12:42:05;;;;;;;1.23;0.53;;;12.60;99.90;;;;;;4978439;28;20186;-83
2022/02/04 12:44:35;;;;;;;1.20;0.57;;;12.70;99.90;;;;;;5001710;28;21073;-82
2022/02/04 12:47:04;;;;;;;1.20;0.60;;;12.70;99.90;;;;;;4990232;28;20581;-83
2022/02/04 12:49:32;;;;;;;1.33;0.60;;;12.70;99.90;;;;;;5010955;28;20620;-83
2022/02/04 12:52:06;;;;;;;1.20;0.50;;;12.70;99.90;;;;;;5003161;28;20978;-83
2022/02/04 12:55:04;;;;;;;1.30;0.60;;;12.70;99.90;;;;;;5003374;28;20589;-83
2022/02/04 13:03:11;;;;;;;1.40;0.70;;;12.70;99.90;;;;;;4957986;28;20798;-84
2022/02/04 13:09:01;;;;;;;1.10;0.50;;;12.60;99.90;;;;;;5007101;28;20249;-84
2022/02/04 13:11:33;;;;;;;1.33;0.60;;;12.60;99.90;;;;;;4981121;28;20233;-84
2022/02/04 13:13:59;;;;;;;1.20;0.60;;;12.70;99.90;;;;;;5006647;28;21296;-84
2022/02/04 13:16:29;;;;;;;1.80;0.60;;;12.60;99.90;;;;;;5008012;28;20598;-84
2022/02/04 13:19:01;;;;;;;1.80;0.63;;;12.70;99.90;;;;;;5003835;28;20609;-82
2022/02/04 13:21:28;;;;;;;2.03;0.55;;;12.70;99.90;;;;;;4982889;28;20179;-83
2022/02/04 13:23:55;;;;;;;1.20;0.50;;;12.60;99.90;;;;;;4991465;28;20632;-84
2022/02/04 13:26:23;;;;;;;1.20;0.60;;;12.60;99.90;;;;;;4992645;28;20171;-83
2022/02/04 13:28:56;;;;;;;1.20;0.60;;;12.60;99.90;;;;;;4980481;28;20665;-81
2022/02/04 13:31:22;;;;;;;1.45;0.50;;;12.60;99.90;;;;;;5005296;28;20173;-83
2022/02/04 13:33:53;;;;;;;1.20;0.60;;;12.60;99.90;;;;;;4994332;28;20613;-82
2022/02/04 13:36:35;;;;;;;1.40;0.73;;;12.60;99.90;;;;;;4974046;28;20182;-83
2022/02/04 13:47:31;;;;;;;2.50;0.73;;;12.60;99.90;;;;;;4986925;28;20236;-83
2022/02/04 14:03:31;;;;;;;1.83;0.90;;;12.60;99.90;;;;;;4998990;28;20541;-83
2022/02/04 14:06:04;;;;;;;2.13;0.95;;;12.60;99.90;;;;;;5007293;28;20183;-82
2022/02/04 14:08:38;;;;;;;2.63;1.00;;;12.60;99.90;;;;;;5002235;28;20213;-83
2022/02/04 14:11:07;;;;;;;1.50;0.80;;;12.70;99.90;;;;;;4984356;28;20201;-80
2022/02/04 14:13:33;;;;;;;2.80;0.95;;;12.80;99.90;;;;;;5007374;28;20625;-81
2022/02/04 14:16:11;;;;;;;1.70;0.90;;;12.90;99.90;;;;;;4986178;28;20200;-80
2022/02/04 14:18:38;;;;;;;1.50;0.87;;;13.00;99.90;;;;;;4986422;28;20601;-81
2022/02/04 14:21:09;;;;;;;3.20;1.10;;;13.10;99.90;;;;;;4986956;28;20576;-81
2022/02/04 14:23:35;;;;;;;1.80;0.90;;;13.10;99.90;;;;;;5006120;28;20573;-83
2022/02/04 14:28:46;;;;;;;2.30;0.80;;;13.20;99.90;;;;;;4998674;28;20213;-84
2022/02/04 14:31:19;;;;;;;2.17;0.70;;;13.20;99.90;;;;;;4992213;28;20751;-83
2022/02/04 14:50:19;;;;;;;1.67;0.70;;;13.30;99.90;;;;;;5006331;28;20584;-82
2022/02/04 14:53:09;;;;;;;1.63;0.70;;;13.20;99.90;;;;;;5004161;28;20636;-80
2022/02/04 15:01:22;;;;;;;2.13;0.90;;;13.10;99.90;;;;;;4965651;28;20809;-84
2022/02/04 15:06:30;;;;;;;2.80;0.80;;;13.00;99.90;;;;;;4995988;28;20589;-86
2022/02/04 15:08:56;;;;;;;1.73;1.00;;;12.90;99.90;;;;;;5010212;28;20605;-84
2022/02/04 15:11:30;;;;;;;3.50;0.80;;;12.90;99.90;;;;;;5010092;28;21189;-86
2022/02/04 15:13:56;;;;;;;1.83;0.63;;;12.90;99.90;;;;;;4998301;28;20635;-86
2022/02/04 15:16:22;;;;;;;1.98;0.65;;;12.90;99.90;;;;;;5005295;28;20163;-85
2022/02/04 15:18:48;;;;;;;2.40;0.83;;;12.80;99.90;;;;;;5011997;28;20846;-86
2022/02/04 15:21:17;;;;;;;2.70;1.17;;;12.80;99.90;;;;;;4990136;28;20193;-85
2022/02/04 15:23:47;;;;;;;3.40;0.80;;;12.70;99.90;;;;;;5007293;28;20586;-84
2022/02/04 15:26:15;;;;;;;3.70;0.80;;;12.70;99.90;;;;;;4976414;28;20586;-83
2022/02/04 15:28:44;;;;;;;1.63;0.70;;;12.70;99.90;;;;;;4989069;28;20533;-84
2022/02/04 15:31:21;;;;;;;1.75;1.15;;;12.70;99.90;;;;;;5007261;28;20610;-83
2022/02/04 15:33:48;;;;;;;3.60;0.52;;;12.60;99.90;;;;;;4992428;28;20217;-84
2022/02/04 15:36:23;;;;;;;1.63;0.70;;;12.60;99.90;;;;;;4992431;28;20535;-85
2022/02/04 15:38:49;;;;;;;1.77;0.93;;;12.60;99.90;;;;;;4989626;28;20654;-85
2022/02/04 15:41:15;;;;;;;1.60;0.77;;;12.60;99.90;;;;;;4996110;28;20178;-85
2022/02/04 15:43:42;;;;;;;2.08;0.70;;;12.50;99.90;;;;;;5009783;28;20599;-86
2022/02/04 16:01:59;;;;;;;3.40;0.80;;;12.00;99.90;;;;;;5005965;28;20209;-86
2022/02/04 16:04:27;;;;;;;2.28;0.80;;;11.90;99.90;;;;;;4984504;28;20226;-84
2022/02/04 16:06:53;;;;;;;3.33;0.70;;;11.70;99.90;;;;;;5006328;28;20225;-85
2022/02/04 16:09:21;;;;;;;5.83;1.73;;;11.60;99.90;;;;;;5012988;28;20226;-84
2022/02/04 16:11:53;;;;;;;1.58;0.75;;;11.60;99.90;;;;;;4990115;28;20175;-83
2022/02/04 16:14:42;;;;;;;1.40;0.60;;;11.50;99.90;;;;;;4987890;28;20292;-83
2022/02/04 16:17:14;;;;;;;1.77;0.60;;;11.40;99.90;;;;;;4987896;28;20182;-81
2022/02/04 16:20:07;;;;;;;2.08;0.50;;;11.30;99.90;;;;;;5004856;28;20577;-84
2022/02/04 16:22:33;;;;;;;1.33;0.50;;;11.30;99.90;;;;;;4997920;28;20213;-83
2022/02/04 16:25:14;;;;;;;1.30;0.60;;;11.20;99.90;;;;;;5000345;28;20548;-83
2022/02/04 16:30:08;;;;;;;3.27;0.70;;;11.10;99.90;;;;;;5010862;28;20198;-85
2022/02/04 16:32:34;;;;;;;2.05;0.60;;;11.10;99.90;;;;;;5009988;28;20205;-85
2022/02/04 16:35:03;;;;;;;2.22;1.50;;;11.00;99.90;;;;;;4987469;28;20270;-86
2022/02/04 16:37:32;;;;;;;1.73;0.60;;;11.00;99.90;;;;;;5010986;28;20194;-85
2022/02/04 16:40:12;;;;;;;4.82;0.80;;;10.90;99.90;;;;;;4986990;28;20218;-84
2022/02/04 16:42:38;;;;;;;1.20;0.60;;;10.90;99.90;;;;;;5004606;28;20189;-83
2022/02/04 16:45:05;;;;;;;1.73;0.70;;;10.90;99.90;;;;;;5000288;28;20523;-83
2022/02/04 16:47:31;;;;;;;2.13;0.70;;;10.80;99.90;;;;;;4983625;28;20266;-84
2022/02/04 16:50:01;;;;;;;5.27;2.90;;;10.80;99.90;;;;;;4999901;28;20278;-84
2022/02/04 16:52:30;;;;;;;3.25;1.30;;;10.80;99.90;;;;;;4983373;28;20317;-85
2022/02/04 16:54:56;;;;;;;5.80;1.00;;;10.80;99.90;;;;;;5002178;28;20175;-84
2022/02/04 16:57:24;;;;;;;2.53;0.80;;;10.80;99.90;;;;;;5003450;28;20175;-84
2022/02/04 16:59:56;;;;;;;1.30;0.60;;;10.70;99.90;;;;;;5007381;28;20198;-83
2022/02/04 17:02:22;;;;;;;2.85;0.95;;;10.70;99.90;;;;;;4993721;28;20197;-83
2022/02/04 17:04:48;;;;;;;1.87;0.60;;;10.60;99.90;;;;;;4985800;28;20186;-84
2022/02/04 17:07:21;;;;;;;2.60;0.70;;;10.40;99.90;;;;;;5007721;28;20570;-84
2022/02/04 17:09:49;;;;;;;1.95;0.98;;;10.40;99.90;;;;;;5004390;28;21024;-83
2022/02/04 17:12:25;;;;;;;2.15;0.85;;;10.10;99.90;;;;;;4992417;28;20533;-83
2022/02/04 17:14:51;;;;;;;1.92;0.80;;;10.00;99.90;;;;;;4978875;28;20182;-83
2022/02/04 17:17:23;;;;;;;1.35;0.70;;;9.80;99.90;;;;;;4976453;28;20182;-83
2022/02/04 17:19:54;;;;;;;1.80;0.60;;;9.70;99.90;;;;;;4997929;28;20191;-83
2022/02/04 17:22:20;;;;;;;1.17;0.60;;;9.60;99.90;;;;;;5003069;28;20262;-85
2022/02/04 17:24:49;;;;;;;1.00;0.40;;;9.50;99.90;;;;;;5010802;28;20265;-85
2022/02/04 17:27:15;;;;;;;1.63;0.60;;;9.40;99.90;;;;;;4994692;28;20570;-85
2022/02/04 17:29:41;;;;;;;1.77;0.60;;;9.30;99.90;;;;;;4998968;28;20198;-84
2022/02/04 17:32:07;;;;;;;1.87;0.87;;;9.20;99.90;;;;;;4990928;28;20244;-83
2022/02/04 17:34:33;;;;;;;1.37;0.50;;;9.00;99.90;;;;;;4999194;28;20581;-85
2022/02/04 17:36:58;;;;;;;3.10;0.67;;;8.90;99.90;;;;;;5009061;28;20245;-86
2022/02/04 17:39:26;;;;;;;1.50;0.50;;;8.90;99.90;;;;;;4998945;28;20617;-86
2022/02/04 17:41:57;;;;;;;3.20;1.80;;;8.80;99.90;;;;;;4995650;28;20570;-85
2022/02/04 17:44:23;;;;;;;2.13;1.40;;;8.70;99.90;;;;;;4986156;28;20666;-85
2022/02/04 17:46:50;;;;;;;1.20;0.70;;;8.60;99.90;;;;;;4997685;28;20655;-85
2022/02/04 17:51:52;;;;;;;1.60;1.10;;;8.40;99.90;;;;;;5006857;28;20183;-83
2022/02/04 17:54:27;;;;;;;2.10;1.00;;;8.40;99.90;;;;;;4984374;28;20217;-83
2022/02/04 18:07:22;;;;;;;3.03;1.63;;;8.20;99.90;;;;;;5003085;28;20540;-86
2022/02/04 18:09:48;;;;;;;3.53;2.40;;;8.20;99.90;;;;;;4995646;28;20284;-85
2022/02/04 18:12:15;;;;;;;3.73;1.97;;;8.20;99.90;;;;;;4995918;28;20265;-84
2022/02/04 18:14:43;;;;;;;2.33;2.13;;;8.20;99.90;;;;;;5004435;28;20185;-85
2022/02/04 18:17:09;;;;;;;4.40;3.05;;;8.10;99.90;;;;;;5002541;28;20186;-84
2022/02/04 18:19:37;;;;;;;6.47;5.43;;;8.10;99.90;;;;;;4989247;28;20707;-84
2022/02/04 18:22:03;;;;;;;5.72;4.72;;;8.10;99.90;;;;;;5005606;28;20220;-84
2022/02/04 18:24:29;;;;;;;4.80;4.40;;;8.10;99.90;;;;;;5007417;28;20191;-84
2022/02/04 18:26:54;;;;;;;4.90;3.80;;;8.10;99.90;;;;;;5001649;28;20616;-84
2022/02/04 18:29:20;;;;;;;8.80;5.47;;;8.10;99.90;;;;;;4971929;28;20221;-84
2022/02/04 18:31:46;;;;;;;7.30;5.60;;;8.10;99.90;;;;;;4989802;28;20951;-84
2022/02/04 18:34:14;;;;;;;4.53;3.63;;;8.10;99.90;;;;;;5002197;28;20210;-81
2022/02/04 18:36:41;;;;;;;5.60;4.53;;;8.00;99.90;;;;;;5012822;28;20581;-82
2022/02/04 18:39:15;;;;;;;7.53;3.55;;;8.00;99.90;;;;;;4987243;28;20297;-81
2022/02/04 18:44:10;;;;;;;4.33;2.80;;;7.90;99.90;;;;;;5010801;28;20265;-81
2022/02/04 18:47:25;;;;;;;5.32;1.30;;;7.90;99.90;;;;;;4991767;28;20186;-82
2022/02/04 18:49:31;;;;;;;3.28;2.63;;;7.80;99.90;;;;;;4997190;28;20218;-81
2022/02/04 18:52:20;;;;;;;5.05;1.35;;;7.70;99.90;;;;;;4991230;28;20182;-81
2022/02/04 18:57:23;;;;;;;3.17;1.20;;;7.50;99.90;;;;;;4998858;28;20221;-81
2022/02/04 18:59:57;;;;;;;2.38;1.10;;;7.40;99.90;;;;;;5006227;28;20194;-81
2022/02/04 19:02:25;;;;;;;8.63;4.45;;;7.40;99.90;;;;;;5003143;28;20178;-82
2022/02/04 19:05:18;;;;;;;3.67;2.25;;;7.30;99.90;;;;;;4996221;28;20178;-82
2022/02/04 19:07:43;;;;;;;5.72;3.05;;;7.30;99.90;;;;;;4988388;28;20678;-82
2022/02/04 19:10:09;;;;;;;6.90;3.42;;;7.30;99.90;;;;;;5005662;28;20261;-82
2022/02/04 19:18:15;;;;;;;5.03;2.90;;;7.20;99.90;;;;;;5004563;28;20201;-82
2022/02/04 19:20:53;;;;;;;5.72;2.40;;;7.20;99.90;;;;;;5010430;28;20312;-81
2022/02/04 19:23:24;;;;;;;6.60;3.42;;;7.20;99.90;;;;;;5005653;28;20178;-82
2022/02/04 19:25:54;;;;;;;11.00;4.95;;;7.20;99.90;;;;;;5003533;28;20174;-81
2022/02/04 19:28:23;;;;;;;8.77;3.85;;;7.20;99.90;;;;;;5004068;28;20222;-82
2022/02/04 19:30:50;;;;;;;10.02;5.78;;;7.20;99.90;;;;;;4993874;28;20770;-82
2022/02/04 19:33:18;;;;;;;8.75;4.57;;;7.20;99.90;;;;;;4994006;28;20229;-82
2022/02/04 19:35:45;;;;;;;9.40;4.13;;;7.30;99.90;;;;;;5006188;28;20175;-82
2022/02/04 19:38:11;;;;;;;10.68;4.45;;;7.30;99.90;;;;;;5000762;28;20671;-82
2022/02/04 19:40:42;;;;;;;8.10;3.40;;;7.30;99.90;;;;;;4999593;28;20312;-82
2022/02/04 19:43:10;;;;;;;6.93;3.10;;;7.30;99.90;;;;;;5007493;28;20232;-80
2022/02/04 19:45:45;;;;;;;7.45;2.10;;;7.30;99.90;;;;;;4998805;28;20198;-81
2022/02/04 19:48:21;;;;;;;5.32;2.25;;;7.20;99.90;;;;;;5001520;28;20195;-82
2022/02/04 20:25:31;;;;;;;4.05;1.85;;;6.50;99.90;;;;;;4987642;28;20170;-82
2022/02/04 20:28:05;;;;;;;5.73;2.00;;;6.40;99.90;;;;;;4999365;28;20233;-82
2022/02/04 20:30:31;;;;;;;4.78;1.70;;;6.40;99.90;;;;;;5005050;28;20173;-82
2022/02/04 20:32:56;;;;;;;4.43;1.83;;;6.40;99.90;;;;;;5003145;28;20256;-81